Main page
METAR-TAF:

METAR-TAF

Airports :

Al-Jawf Domestic Airport

Sakakah, Saudi Arabia

latitude: 29-47N, longitude: 040-06E, elevation: 689 m

Current weather observation

The report was made 25 minutes ago, at 04:00 UTC
Wind 5 kt from the North
Temperature 34°C
Humidity 9%
Pressure 1009 hPa
Visibility 10 km or more
no clouds below 1500 m and no cumulonimbus

METAR: OESK 210400Z 01005KT CAVOK 34/M04 Q1009 NOSIG

Time: 07:25 (04:25 UTC)

Forecast

The report was made 5 hours and 25 minutes ago, at 23:00 UTC
Forecast valid from 21 at 00 UTC to 22 at 06 UTC
Wind 8 kt from the Northeast
Visibility 10 km or more
Few clouds at a height of 4000 ft
Becoming
from 21 at 12 UTC to 21 at 14 UTC
Wind 10 kt from the West
Becoming
from 21 at 22 UTC to 22 at 00 UTC
Wind 10 kt from the West/Northwest

TAF: OESK 202300Z 2100/2206 04008KT 9999 FEW040 BECMG 2112/2114 27010KT BECMG 2122/2200 29010KT

Weather observations and forecasts of more than 4000 airports (METAR and TAF reports).

The available stations are represented by yellow and red dots on the map.

Hover mouse over dot to see the name of the station.

Then click to see weather observations and forecasts.

To change the map : click on the green buttons with a black cross to zoom in, on the green button with a dash to zoom out, or on the green arrows for adjacent maps.


METAR-TAF: